Time;durP1;ratioP1;P1;durP2;ratioP2;P2;SDS_P1;SDS_P2;PMS_P1;PMS_P2;Temp;Humidity;BMP_temperature;BMP_pressure;BME280_temperature;BME280_humidity;BME280_pressure;Samples;Min_cycle;Max_cycle;Signal;HPM_P1;HPM_P2
2021/11/13 00:01:32;;;;;;;39.38;19.40;;;;;;;-139.48;100.00;61774.03;4973378;28;20062;-68
2021/11/13 00:04:16;;;;;;;38.17;19.23;;;;;;;-139.48;100.00;61774.03;4959729;28;20575;-67
2021/11/13 00:07:00;;;;;;;38.97;18.70;;;;;;;-139.48;100.00;61774.03;4973485;28;20527;-68
2021/11/13 00:09:44;;;;;;;41.33;16.52;;;;;;;-139.48;100.00;61774.03;4973436;28;20054;-67
2021/11/13 00:12:28;;;;;;;47.78;18.90;;;;;;;-139.48;100.00;61774.03;4975948;28;20062;-67
2021/11/13 00:15:15;;;;;;;43.97;20.38;;;;;;;-139.48;100.00;61774.03;4976814;28;20129;-67
2021/11/13 00:17:59;;;;;;;53.13;20.40;;;;;;;-139.48;100.00;61774.03;4976765;28;20518;-67
2021/11/13 00:20:43;;;;;;;;;;;;;;;-139.48;100.00;61774.03;4977041;28;20049;-67
2021/11/13 00:23:27;;;;;;;40.92;18.77;;;;;;;-139.48;100.00;61774.03;4976274;28;19976;-68
2021/11/13 00:26:11;;;;;;;42.67;19.77;;;;;;;-139.48;100.00;61774.03;4977495;28;20053;-67
2021/11/13 00:28:55;;;;;;;48.75;19.35;;;;;;;-139.48;100.00;61774.03;4976487;28;20049;-67
2021/11/13 00:31:39;;;;;;;43.17;19.42;;;;;;;-139.48;100.00;61774.03;4976431;28;20558;-67
2021/11/13 00:34:24;;;;;;;46.72;20.10;;;;;;;-139.48;100.00;61774.03;4976333;28;20411;-67
2021/11/13 00:37:08;;;;;;;45.47;19.23;;;;;;;-139.48;100.00;61774.03;4977247;28;20563;-68
2021/11/13 00:39:51;;;;;;;50.58;21.30;;;;;;;-139.48;100.00;61774.03;4976438;28;20514;-68
2021/11/13 00:42:35;;;;;;;48.30;21.42;;;;;;;-139.48;100.00;61774.03;4976291;28;20053;-68
2021/11/13 00:45:19;;;;;;;43.45;19.55;;;;;;;-139.48;100.00;61774.03;4962298;28;20053;-67
2021/11/13 00:48:03;;;;;;;54.17;20.83;;;;;;;-139.48;100.00;61774.03;4962768;28;20050;-67
2021/11/13 00:50:47;;;;;;;52.92;21.25;;;;;;;-139.48;100.00;61774.03;4976102;28;20420;-67
2021/11/13 00:53:32;;;;;;;47.63;21.13;;;;;;;-139.48;100.00;61774.03;4975757;28;20416;-67
2021/11/13 00:56:16;;;;;;;45.25;18.85;;;;;;;-139.48;100.00;61774.03;4962598;28;20101;-67
2021/11/13 00:59:01;;;;;;;46.83;19.08;;;;;;;-139.48;100.00;61774.03;4975987;28;20137;-67
2021/11/13 01:01:45;;;;;;;47.90;20.42;;;;;;;-139.48;100.00;61774.03;4976000;28;20101;-67
2021/11/13 01:04:28;;;;;;;47.95;19.67;;;;;;;-139.48;100.00;61774.03;4975422;28;20135;-67
2021/11/13 01:07:12;;;;;;;50.97;19.83;;;;;;;-139.48;100.00;61774.03;4975786;28;20049;-67
2021/11/13 01:09:56;;;;;;;;;;;;;;;-139.48;100.00;61774.03;4977172;28;20193;-67
2021/11/13 01:12:40;;;;;;;46.50;20.38;;;;;;;-139.48;100.00;61774.03;4976366;28;20035;-67
2021/11/13 01:15:25;;;;;;;49.55;20.65;;;;;;;-139.48;100.00;61774.03;4962100;28;20552;-67
2021/11/13 01:18:09;;;;;;;48.15;20.88;;;;;;;-139.48;100.00;61774.03;4976575;28;20121;-67
2021/11/13 01:20:53;;;;;;;47.50;18.85;;;;;;;-139.48;100.00;61774.03;4961886;28;20134;-67
2021/11/13 01:23:38;;;;;;;53.70;20.40;;;;;;;-139.48;100.00;61774.03;4975475;28;20121;-68
2021/11/13 01:26:22;;;;;;;46.85;20.85;;;;;;;-139.48;100.00;61774.03;4975479;28;20181;-67
2021/11/13 01:29:06;;;;;;;66.28;21.10;;;;;;;-139.48;100.00;61774.03;4975147;28;20197;-67
2021/11/13 01:31:51;;;;;;;70.28;21.52;;;;;;;-139.48;100.00;61774.03;4961876;28;20050;-67
2021/11/13 01:34:35;;;;;;;45.40;18.42;;;;;;;-139.48;100.00;61774.03;4975420;28;20069;-67
2021/11/13 01:37:23;;;;;;;56.42;22.08;;;;;;;-139.48;100.00;61774.03;4975262;28;20527;-67
2021/11/13 01:40:09;;;;;;;;;;;;;;;-139.48;100.00;61774.03;4975648;28;20049;-67
2021/11/13 01:42:55;;;;;;;73.93;20.60;;;;;;;-139.48;100.00;61774.03;4975000;28;20000;-67
2021/11/13 01:45:39;;;;;;;82.78;23.80;;;;;;;-139.48;100.00;61774.03;4975142;28;20508;-68
2021/11/13 01:48:23;;;;;;;63.65;21.92;;;;;;;-139.48;100.00;61774.03;4974819;28;20054;-67
2021/11/13 01:51:28;;;;;;;62.80;21.48;;;;;;;-139.48;100.00;61774.03;4976006;28;20053;-68
2021/11/13 01:54:13;;;;;;;80.63;21.38;;;;;;;-139.48;100.00;61774.03;4974875;28;20057;-67
2021/11/13 01:56:57;;;;;;;60.30;21.50;;;;;;;-139.48;100.00;61774.03;4960988;28;20505;-67
2021/11/13 01:59:41;;;;;;;46.10;18.17;;;;;;;-139.48;100.00;61774.03;4961260;28;20460;-67
2021/11/13 02:02:25;;;;;;;48.05;19.65;;;;;;;-139.48;100.00;61774.03;4961027;28;20046;-68
2021/11/13 02:05:09;;;;;;;50.90;19.98;;;;;;;-139.48;100.00;61774.03;4975726;28;20097;-67
2021/11/13 02:07:53;;;;;;;54.45;20.90;;;;;;;-139.48;100.00;61774.03;4974723;28;20150;-67
2021/11/13 02:10:37;;;;;;;49.92;19.33;;;;;;;-139.48;100.00;61774.03;4974876;28;20101;-67
2021/11/13 02:13:21;;;;;;;53.80;20.63;;;;;;;-139.48;100.00;61774.03;4974355;28;20101;-68
2021/11/13 02:16:08;;;;;;;54.33;18.80;;;;;;;-139.48;100.00;61774.03;4974300;28;20415;-67
2021/11/13 02:18:52;;;;;;;59.80;20.70;;;;;;;-139.48;100.00;61774.03;4975241;28;20045;-67
2021/11/13 02:21:36;;;;;;;64.68;23.17;;;;;;;-139.48;100.00;61774.03;4974160;28;20101;-67
2021/11/13 02:24:20;;;;;;;49.13;20.05;;;;;;;-139.48;100.00;61774.03;4960679;28;20137;-67
2021/11/13 02:27:04;;;;;;;71.40;22.33;;;;;;;-139.48;100.00;61774.03;4974398;28;20113;-67
2021/11/13 02:29:49;;;;;;;62.95;23.60;;;;;;;-139.48;100.00;61774.03;4974059;28;20049;-67
2021/11/13 02:32:33;;;;;;;51.50;20.88;;;;;;;-139.48;100.00;61774.03;4975142;28;20054;-67
2021/11/13 02:35:18;;;;;;;50.58;20.70;;;;;;;-139.48;100.00;61774.03;4959824;28;20102;-67
2021/11/13 02:38:12;;;;;;;46.67;19.08;;;;;;;-139.48;100.00;61774.03;4974280;28;20101;-67
2021/11/13 02:40:58;;;;;;;32.55;13.90;;;;;;;-139.48;100.00;61774.03;4974927;28;20057;-67
2021/11/13 02:43:42;;;;;;;34.63;15.27;;;;;;;-139.48;100.00;61774.03;4974757;28;20052;-67
2021/11/13 02:46:27;;;;;;;34.33;16.63;;;;;;;-139.48;100.00;61774.03;4974010;28;20046;-68
2021/11/13 02:49:11;;;;;;;37.80;18.27;;;;;;;-139.48;100.00;61774.03;4974162;28;20519;-67
2021/11/13 02:51:55;;;;;;;47.60;20.60;;;;;;;-139.48;100.00;61774.03;4974031;28;20049;-67
2021/11/13 02:54:44;;;;;;;57.65;20.80;;;;;;;-139.48;100.00;61774.03;4973704;28;20050;-67
2021/11/13 02:57:28;;;;;;;48.88;18.70;;;;;;;-139.48;100.00;61774.03;4973776;28;20097;-68
2021/11/13 03:00:16;;;;;;;43.03;18.17;;;;;;;-139.48;100.00;61774.03;4974905;28;20113;-68
2021/11/13 03:03:00;;;;;;;57.03;21.42;;;;;;;-139.48;100.00;61774.03;4973505;28;20178;-67
2021/11/13 03:05:46;;;;;;;66.00;22.80;;;;;;;-139.48;100.00;61774.03;4973712;28;20096;-68
2021/11/13 03:08:32;;;;;;;56.45;21.88;;;;;;;-139.48;100.00;61774.03;4973532;28;20081;-67
2021/11/13 03:11:18;;;;;;;47.22;21.77;;;;;;;-139.48;100.00;61774.03;4973735;28;20543;-67
2021/11/13 03:14:02;;;;;;;54.38;21.85;;;;;;;-139.48;100.00;61774.03;4973451;28;20054;-67
2021/11/13 03:16:46;;;;;;;51.13;21.33;;;;;;;-139.48;100.00;61774.03;4973459;28;20555;-67
2021/11/13 03:19:31;;;;;;;54.67;22.77;;;;;;;-139.48;100.00;61774.03;4974720;28;20053;-68
2021/11/13 03:22:16;;;;;;;53.25;22.33;;;;;;;-139.48;100.00;61774.03;4973535;28;20057;-68
2021/11/13 03:25:00;;;;;;;56.05;23.10;;;;;;;-139.48;100.00;61774.03;4973301;28;20524;-67
2021/11/13 03:27:47;;;;;;;57.10;21.00;;;;;;;-139.48;100.00;61774.03;4973602;28;20049;-68
2021/11/13 03:30:32;;;;;;;51.80;22.38;;;;;;;-139.48;100.00;61774.03;4973594;28;20097;-67
2021/11/13 03:33:16;;;;;;;51.28;21.52;;;;;;;-139.48;100.00;61774.03;4973672;28;20061;-67
2021/11/13 03:36:00;;;;;;;43.97;19.42;;;;;;;-139.48;100.00;61774.03;4973254;28;20113;-68
2021/11/13 03:38:44;;;;;;;44.58;19.17;;;;;;;-139.48;100.00;61774.03;4973609;28;20078;-68
2021/11/13 03:41:29;;;;;;;;;;;;;;;-139.48;100.00;61774.03;4974964;28;20624;-68
2021/11/13 03:44:13;;;;;;;56.38;20.02;;;;;;;-139.48;100.00;61774.03;4973161;28;20017;-67
2021/11/13 03:46:57;;;;;;;49.80;20.33;;;;;;;-139.48;100.00;61774.03;4975541;28;20563;-67
2021/11/13 03:49:41;;;;;;;68.80;24.08;;;;;;;-139.48;100.00;61774.03;4977274;28;20573;-67
2021/11/13 03:52:24;;;;;;;62.28;22.17;;;;;;;-139.48;100.00;61774.03;4977006;28;20049;-68
2021/11/13 03:55:08;;;;;;;52.63;20.58;;;;;;;-139.48;100.00;61774.03;4977128;28;20054;-67
2021/11/13 03:57:53;;;;;;;77.22;21.17;;;;;;;-139.48;100.00;61774.03;4977125;28;20173;-67
2021/11/13 04:00:37;;;;;;;46.90;20.83;;;;;;;-139.48;100.00;61774.03;4977982;28;20053;-67
2021/11/13 04:03:21;;;;;;;52.15;20.25;;;;;;;-139.48;100.00;61774.03;4963057;28;20054;-67
2021/11/13 04:06:05;;;;;;;43.10;18.88;;;;;;;-139.48;100.00;61774.03;4976930;28;20050;-67
2021/11/13 04:08:49;;;;;;;48.42;19.45;;;;;;;-139.48;100.00;61774.03;4977617;28;20066;-67
2021/11/13 04:11:33;;;;;;;43.10;18.42;;;;;;;-139.48;100.00;61774.03;4962986;28;20113;-68
2021/11/13 04:14:17;;;;;;;42.45;19.80;;;;;;;-139.48;100.00;61774.03;4976476;28;20058;-67
2021/11/13 04:17:01;;;;;;;60.45;19.20;;;;;;;-139.48;100.00;61774.03;4977491;28;20463;-68
2021/11/13 04:19:45;;;;;;;45.58;20.17;;;;;;;-139.48;100.00;61774.03;4977355;28;20101;-67
2021/11/13 04:22:29;;;;;;;42.00;20.58;;;;;;;-139.48;100.00;61774.03;4977386;28;20074;-67
2021/11/13 04:25:13;;;;;;;;;;;;;;;-139.48;100.00;61774.03;4977141;28;20066;-67
2021/11/13 04:27:57;;;;;;;42.63;20.27;;;;;;;-139.48;100.00;61774.03;4976599;28;19961;-67
2021/11/13 04:30:41;;;;;;;46.20;21.08;;;;;;;-139.48;100.00;61774.03;4977461;28;20268;-68
2021/11/13 04:33:26;;;;;;;;;;;;;;;-139.48;100.00;61774.03;4976715;28;20408;-67
2021/11/13 04:39:00;;;;;;;45.55;20.10;;;;;;;-139.48;100.00;61774.03;4976404;28;20061;-68
2021/11/13 04:41:44;;;;;;;50.83;20.40;;;;;;;-139.48;100.00;61774.03;4976073;28;20081;-67
2021/11/13 04:44:28;;;;;;;;;;;;;;;-139.48;100.00;61774.03;4976613;28;20558;-67
2021/11/13 04:47:12;;;;;;;36.58;17.67;;;;;;;-139.48;100.00;61774.03;4977293;28;20402;-67
2021/11/13 04:49:56;;;;;;;42.15;19.63;;;;;;;-139.48;100.00;61774.03;4962467;28;20467;-67
2021/11/13 04:52:41;;;;;;;47.03;21.40;;;;;;;-139.48;100.00;61774.03;4962127;28;20424;-67
2021/11/13 04:55:25;;;;;;;41.75;20.73;;;;;;;-139.48;100.00;61774.03;4962280;28;20084;-68
2021/11/13 04:58:09;;;;;;;45.47;21.05;;;;;;;-139.48;100.00;61774.03;4961096;28;20046;-67
2021/11/13 05:00:53;;;;;;;48.47;20.65;;;;;;;-139.48;100.00;61774.03;4976640;28;20097;-67
2021/11/13 05:03:37;;;;;;;43.88;21.80;;;;;;;-139.48;100.00;61774.03;4975812;28;20118;-68
2021/11/13 05:06:22;;;;;;;43.67;20.63;;;;;;;-139.48;100.00;61774.03;4975441;28;20049;-67
2021/11/13 05:09:06;;;;;;;37.03;18.58;;;;;;;-139.48;100.00;61774.03;4975583;28;20092;-67
2021/11/13 05:11:50;;;;;;;45.05;21.48;;;;;;;-139.48;100.00;61774.03;4975451;28;20092;-68
2021/11/13 05:14:34;;;;;;;45.15;20.02;;;;;;;-139.48;100.00;61774.03;4961818;28;20101;-68
2021/11/13 05:17:18;;;;;;;41.78;20.05;;;;;;;-139.48;100.00;61774.03;4976633;28;20136;-67
2021/11/13 05:20:07;;;;;;;38.08;18.58;;;;;;;-139.48;100.00;61774.03;4975438;28;20085;-67
2021/11/13 05:22:51;;;;;;;38.95;20.33;;;;;;;-139.48;100.00;61774.03;4961940;28;20077;-67
2021/11/13 05:25:35;;;;;;;;;;;;;;;-139.48;100.00;61774.03;4961945;28;20491;-67
2021/11/13 05:28:19;;;;;;;35.87;15.13;;;;;;;-139.48;100.00;61774.03;4977976;28;19921;-68
2021/11/13 05:31:03;;;;;;;35.95;18.60;;;;;;;-139.48;100.00;61774.03;4961538;28;20276;-68
2021/11/13 05:33:48;;;;;;;44.85;21.50;;;;;;;-139.48;100.00;61774.03;4974987;28;20049;-68
2021/11/13 05:36:32;;;;;;;;;;;;;;;-139.48;100.00;61774.03;4962090;28;20045;-68
2021/11/13 05:39:16;;;;;;;43.08;21.55;;;;;;;-139.48;100.00;61774.03;4975249;28;19920;-68
2021/11/13 05:41:59;;;;;;;46.53;21.67;;;;;;;-139.48;100.00;61774.03;4961494;28;20114;-68
2021/11/13 05:44:45;;;;;;;50.05;23.77;;;;;;;-139.48;100.00;61774.03;4961473;28;20557;-68
2021/11/13 05:47:30;;;;;;;55.15;22.75;;;;;;;-139.48;100.00;61774.03;4961758;28;20053;-68
2021/11/13 05:50:15;;;;;;;47.95;22.88;;;;;;;-139.48;100.00;61774.03;4974884;28;20125;-68
2021/11/13 05:52:59;;;;;;;46.55;22.60;;;;;;;-139.48;100.00;61774.03;4961228;28;20125;-68
2021/11/13 05:55:43;;;;;;;46.05;21.65;;;;;;;-139.48;100.00;61774.03;4975710;28;20105;-68
2021/11/13 05:58:27;;;;;;;46.47;22.35;;;;;;;-139.48;100.00;61774.03;4974891;28;20050;-68
2021/11/13 06:01:11;;;;;;;43.67;22.05;;;;;;;-139.48;100.00;61774.03;4974869;28;20073;-68
2021/11/13 06:03:55;;;;;;;;;;;;;;;-139.48;100.00;61774.03;4961343;28;20081;-68
2021/11/13 06:06:38;;;;;;;47.20;19.83;;;;;;;-139.48;100.00;61774.03;4974857;28;19925;-68
2021/11/13 06:09:23;;;;;;;55.17;23.23;;;;;;;-139.48;100.00;61774.03;4960968;28;20070;-68
2021/11/13 06:12:07;;;;;;;;;;;;;;;-139.48;100.00;61774.03;4975029;28;20053;-68
2021/11/13 06:14:51;;;;;;;56.60;23.20;;;;;;;-139.48;100.00;61774.03;4974466;28;19921;-68
2021/11/13 06:17:36;;;;;;;58.03;23.77;;;;;;;-139.48;100.00;61774.03;4975876;28;20050;-68
2021/11/13 06:20:20;;;;;;;52.70;23.50;;;;;;;-139.48;100.00;61774.03;4960711;28;20049;-68
2021/11/13 06:23:04;;;;;;;53.55;22.35;;;;;;;-139.48;100.00;61774.03;4974449;28;20092;-68
2021/11/13 06:25:48;;;;;;;52.65;24.48;;;;;;;-139.48;100.00;61774.03;4974321;28;20049;-68
2021/11/13 06:28:32;;;;;;;47.85;21.40;;;;;;;-139.48;100.00;61774.03;4974703;28;20109;-68
2021/11/13 06:31:16;;;;;;;60.78;23.55;;;;;;;-139.48;100.00;61774.03;4974669;28;20064;-68
2021/11/13 06:34:00;;;;;;;46.97;23.17;;;;;;;-139.48;100.00;61774.03;4975240;28;20057;-68
2021/11/13 06:36:45;;;;;;;50.88;22.70;;;;;;;-139.48;100.00;61774.03;4975298;28;20085;-68
2021/11/13 06:39:29;;;;;;;52.42;23.77;;;;;;;-139.48;100.00;61774.03;4976115;28;20566;-68
2021/11/13 06:42:12;;;;;;;49.17;22.80;;;;;;;-139.48;100.00;61774.03;4962899;28;20101;-69
2021/11/13 06:44:56;;;;;;;50.47;24.98;;;;;;;-139.48;100.00;61774.03;4975558;28;20048;-68
2021/11/13 06:47:41;;;;;;;49.15;23.67;;;;;;;-139.48;100.00;61774.03;4976156;28;20571;-68
2021/11/13 06:50:25;;;;;;;49.75;23.02;;;;;;;-139.48;100.00;61774.03;4961904;28;20391;-68
2021/11/13 06:53:09;;;;;;;45.70;24.75;;;;;;;-139.48;100.00;61774.03;4960123;28;20049;-69
2021/11/13 06:55:53;;;;;;;50.28;23.20;;;;;;;-139.48;100.00;61774.03;4960620;28;20054;-68
2021/11/13 06:58:37;;;;;;;45.47;22.83;;;;;;;-139.48;100.00;61774.03;4973918;28;20054;-68
2021/11/13 07:01:21;;;;;;;47.40;22.00;;;;;;;-139.48;100.00;61774.03;4974146;28;20101;-68
2021/11/13 07:04:06;;;;;;;41.78;22.42;;;;;;;-139.48;100.00;61774.03;4960241;28;20057;-68
2021/11/13 07:06:50;;;;;;;41.33;21.17;;;;;;;-139.48;100.00;61774.03;4960337;28;20089;-68
2021/11/13 07:09:34;;;;;;;43.60;22.02;;;;;;;-139.48;100.00;61774.03;4960363;28;20050;-68
2021/11/13 07:12:18;;;;;;;40.92;20.90;;;;;;;-139.48;100.00;61774.03;4974064;28;20465;-68
2021/11/13 07:15:04;;;;;;;40.90;21.15;;;;;;;-139.48;100.00;61774.03;4973843;28;20122;-68
2021/11/13 07:17:48;;;;;;;38.35;20.63;;;;;;;-139.48;100.00;61774.03;4973880;28;20050;-68
2021/11/13 07:20:32;;;;;;;;;;;;;;;-139.48;100.00;61774.03;4974780;28;20050;-68
2021/11/13 07:23:16;;;;;;;42.97;21.77;;;;;;;-139.48;100.00;61774.03;4966456;28;19936;-68
2021/11/13 07:26:01;;;;;;;47.10;22.38;;;;;;;-139.48;100.00;61774.03;4979986;28;20872;-68
2021/11/13 07:28:48;;;;;;;46.55;23.10;;;;;;;-139.48;100.00;61774.03;4979902;28;20104;-68
2021/11/13 07:31:33;;;;;;;40.10;21.63;;;;;;;-139.48;100.00;61774.03;4980204;28;20058;-68
2021/11/13 07:34:18;;;;;;;46.55;22.85;;;;;;;-139.48;100.00;61774.03;4979753;28;20101;-68
2021/11/13 07:37:03;;;;;;;50.30;24.88;;;;;;;-139.48;100.00;61774.03;4966084;28;20416;-68
2021/11/13 07:39:47;;;;;;;46.35;23.85;;;;;;;-139.48;100.00;61774.03;4966248;28;20483;-68
2021/11/13 07:42:31;;;;;;;45.75;23.60;;;;;;;-139.48;100.00;61774.03;4966434;28;20128;-68
2021/11/13 07:45:16;;;;;;;42.42;22.50;;;;;;;-139.48;100.00;61774.03;4966197;28;20081;-68
2021/11/13 07:48:00;;;;;;;41.72;23.42;;;;;;;-139.48;100.00;61774.03;4966190;28;20523;-68
2021/11/13 07:50:44;;;;;;;;;;;;;;;-139.48;100.00;61774.03;4980366;28;20115;-68
2021/11/13 07:53:28;;;;;;;44.10;21.00;;;;;;;-139.48;100.00;61774.03;4966273;28;19969;-66
2021/11/13 07:56:12;;;;;;;;;;;;;;;-139.48;100.00;61774.03;4966630;28;20050;-68
2021/11/13 07:58:56;;;;;;;49.08;24.50;;;;;;;-139.48;100.00;61774.03;4966465;28;19921;-68
2021/11/13 08:01:41;;;;;;;46.42;22.42;;;;;;;-139.48;100.00;61774.03;4979766;28;20092;-68
2021/11/13 08:04:26;;;;;;;47.88;24.60;;;;;;;-139.48;100.00;61774.03;4966143;28;20061;-68
2021/11/13 08:07:10;;;;;;;46.80;23.38;;;;;;;-139.48;100.00;61774.03;4979818;28;20507;-67
2021/11/13 08:09:54;;;;;;;42.08;23.08;;;;;;;-139.48;100.00;61774.03;4979950;28;20046;-68
2021/11/13 08:12:39;;;;;;;44.50;23.10;;;;;;;-139.48;100.00;61774.03;4966256;28;20084;-68
2021/11/13 08:15:23;;;;;;;42.08;22.02;;;;;;;-139.48;100.00;61774.03;4980379;28;20495;-68
2021/11/13 08:18:08;;;;;;;43.53;23.65;;;;;;;-139.48;100.00;61774.03;4980947;28;20049;-68
2021/11/13 08:20:52;;;;;;;41.38;21.40;;;;;;;-139.48;100.00;61774.03;4965729;28;20052;-68
2021/11/13 08:23:36;;;;;;;44.10;23.63;;;;;;;-139.48;100.00;61774.03;4964991;28;20174;-68
2021/11/13 08:26:20;;;;;;;39.75;22.20;;;;;;;-139.48;100.00;61774.03;4965270;28;20074;-68
2021/11/13 08:29:04;;;;;;;37.40;22.30;;;;;;;-139.48;100.00;61774.03;4965517;28;20459;-68
2021/11/13 08:31:48;;;;;;;40.63;22.40;;;;;;;-139.48;100.00;61774.03;4965162;28;20054;-68
2021/11/13 08:34:35;;;;;;;39.88;22.38;;;;;;;-139.48;100.00;61774.03;4962301;28;20360;-68
2021/11/13 08:37:19;;;;;;;41.05;22.58;;;;;;;-139.48;100.00;61774.03;4975813;28;20160;-68
2021/11/13 08:40:04;;;;;;;44.33;22.17;;;;;;;-139.48;100.00;61774.03;4962199;28;20110;-68
2021/11/13 08:42:48;;;;;;;39.30;21.77;;;;;;;-139.48;100.00;61774.03;4975515;28;20455;-68
2021/11/13 08:45:32;;;;;;;39.03;21.77;;;;;;;-139.48;100.00;61774.03;4961725;28;20158;-69
2021/11/13 08:48:16;;;;;;;39.25;22.55;;;;;;;-139.48;100.00;61774.03;4962035;28;20048;-68
2021/11/13 08:51:00;;;;;;;35.30;20.00;;;;;;;-139.48;100.00;61774.03;4975609;28;20050;-68
2021/11/13 08:53:53;;;;;;;36.95;19.98;;;;;;;-139.48;100.00;61774.03;4975367;28;20404;-68
2021/11/13 08:56:37;;;;;;;36.88;19.88;;;;;;;-139.48;100.00;61774.03;4976497;28;20081;-69
2021/11/13 08:59:20;;;;;;;37.15;19.67;;;;;;;-139.48;100.00;61774.03;4975755;28;20480;-68
2021/11/13 09:02:09;;;;;;;31.77;19.60;;;;;;;-139.48;100.00;61774.03;4975196;28;20429;-68
2021/11/13 09:04:55;;;;;;;32.92;19.85;;;;;;;-139.48;100.00;61774.03;4961840;28;20085;-68
2021/11/13 09:07:39;;;;;;;32.30;19.55;;;;;;;-139.48;100.00;61774.03;4962026;28;20058;-68
2021/11/13 09:10:23;;;;;;;35.38;20.83;;;;;;;-139.48;100.00;61774.03;4975098;28;20125;-68
2021/11/13 09:13:10;;;;;;;32.10;19.55;;;;;;;-139.48;100.00;61774.03;4961379;28;20484;-68
2021/11/13 09:15:57;;;;;;;34.75;20.67;;;;;;;-139.48;100.00;61774.03;4976236;28;20050;-68
2021/11/13 09:18:42;;;;;;;30.27;17.58;;;;;;;-139.48;100.00;61774.03;4974812;28;20053;-68
2021/11/13 09:21:29;;;;;;;30.50;18.20;;;;;;;-139.48;100.00;61774.03;4961266;28;20117;-68
2021/11/13 09:24:13;;;;;;;29.33;18.52;;;;;;;-139.48;100.00;61774.03;4976000;28;20590;-68
2021/11/13 09:26:57;;;;;;;32.88;18.50;;;;;;;-139.48;100.00;61774.03;4960964;28;20081;-68
2021/11/13 09:29:41;;;;;;;28.58;18.50;;;;;;;-139.48;100.00;61774.03;4961468;28;20126;-67
2021/11/13 09:32:25;;;;;;;32.20;19.58;;;;;;;-139.48;100.00;61774.03;4961058;28;20152;-68
2021/11/13 09:35:13;;;;;;;34.90;19.00;;;;;;;-139.48;100.00;61774.03;4961114;28;20069;-68
2021/11/13 09:37:58;;;;;;;31.45;19.15;;;;;;;-139.48;100.00;61774.03;4975839;28;20074;-68
2021/11/13 09:40:42;;;;;;;35.60;20.30;;;;;;;-139.48;100.00;61774.03;4974403;28;20054;-68
2021/11/13 09:43:27;;;;;;;33.72;19.92;;;;;;;-139.48;100.00;61774.03;4960763;28;20058;-68
2021/11/13 09:46:11;;;;;;;32.97;19.70;;;;;;;-139.48;100.00;61774.03;4960884;28;20050;-68
2021/11/13 09:48:57;;;;;;;31.70;18.27;;;;;;;-139.48;100.00;61774.03;4960753;28;20429;-68
2021/11/13 09:51:42;;;;;;;31.25;18.75;;;;;;;-139.48;100.00;61774.03;4974291;28;20114;-67
2021/11/13 09:54:27;;;;;;;31.20;18.23;;;;;;;-139.48;100.00;61774.03;4960791;28;20110;-66
2021/11/13 09:57:12;;;;;;;30.95;19.00;;;;;;;-139.48;100.00;61774.03;4960888;28;20078;-68
2021/11/13 09:59:56;;;;;;;34.10;19.40;;;;;;;-139.48;100.00;61774.03;4974124;28;20054;-68
2021/11/13 10:02:40;;;;;;;;;;;;;;;-139.48;100.00;61774.03;4960733;28;20054;-68
2021/11/13 10:05:25;;;;;;;33.47;19.07;;;;;;;-139.48;100.00;61774.03;4960239;28;19925;-68
2021/11/13 10:08:09;;;;;;;34.33;19.95;;;;;;;-139.48;100.00;61774.03;4974147;28;20464;-68
2021/11/13 10:11:08;;;;;;;30.63;18.42;;;;;;;-139.48;100.00;61774.03;4960307;28;20109;-68
2021/11/13 10:13:57;;;;;;;36.35;20.00;;;;;;;-139.48;100.00;61774.03;4960271;28;20408;-68
2021/11/13 10:16:46;;;;;;;32.25;17.75;;;;;;;-139.48;100.00;61774.03;4974138;28;20050;-68
2021/11/13 10:19:30;;;;;;;35.20;21.80;;;;;;;-139.48;100.00;61774.03;4960618;28;20081;-68
2021/11/13 10:22:14;;;;;;;33.58;19.00;;;;;;;-139.48;100.00;61774.03;4960349;28;20054;-68
2021/11/13 10:24:58;;;;;;;35.92;21.52;;;;;;;-139.48;100.00;61774.03;4973547;28;20054;-67
2021/11/13 10:28:06;;;;;;;38.08;18.08;;;;;;;-139.48;100.00;61774.03;4974493;28;20054;-67
2021/11/13 10:31:14;;;;;;;37.72;23.02;;;;;;;-139.48;100.00;61774.03;4973801;28;20113;-68
2021/11/13 10:34:01;;;;;;;35.00;21.20;;;;;;;-139.48;100.00;61774.03;4973412;28;20093;-68
2021/11/13 10:36:48;;;;;;;39.35;20.98;;;;;;;-139.48;100.00;61774.03;4974772;28;20058;-69
2021/11/13 10:39:35;;;;;;;36.78;22.58;;;;;;;-139.48;100.00;61774.03;4973371;28;20046;-68
2021/11/13 10:42:22;;;;;;;35.28;21.95;;;;;;;-139.48;100.00;61774.03;4960190;28;20081;-68
2021/11/13 10:45:06;;;;;;;33.13;18.83;;;;;;;-139.48;100.00;61774.03;4960117;28;20101;-68
2021/11/13 10:47:50;;;;;;;45.40;23.17;;;;;;;-139.48;100.00;61774.03;4973371;28;20050;-68
2021/11/13 10:50:40;;;;;;;36.42;20.90;;;;;;;-139.48;100.00;61774.03;4960188;28;20128;-67
2021/11/13 10:53:25;;;;;;;24.67;11.15;;;;;;;-139.48;100.00;61774.03;4974995;28;20128;-68
2021/11/13 10:56:20;;;;;;;43.97;21.23;;;;;;;-139.48;100.00;61774.03;4973514;28;20046;-69
2021/11/13 10:59:04;;;;;;;39.65;23.23;;;;;;;-139.48;100.00;61774.03;4974313;28;20046;-68
2021/11/13 11:01:48;;;;;;;40.13;23.23;;;;;;;-139.48;100.00;61774.03;4959714;28;20053;-68
2021/11/13 11:04:36;;;;;;;41.08;24.35;;;;;;;-139.48;100.00;61774.03;4973125;28;20045;-68
2021/11/13 11:07:24;;;;;;;37.55;22.58;;;;;;;-139.48;100.00;61774.03;4973013;28;20088;-68
2021/11/13 11:10:13;;;;;;;34.40;21.27;;;;;;;-139.48;100.00;61774.03;4973405;28;20057;-67
2021/11/13 11:12:57;;;;;;;35.58;21.65;;;;;;;-139.48;100.00;61774.03;4973773;28;20061;-68
2021/11/13 11:15:41;;;;;;;36.58;20.15;;;;;;;-139.48;100.00;61774.03;4973431;28;20046;-68
2021/11/13 11:18:25;;;;;;;27.33;14.25;;;;;;;-139.48;100.00;61774.03;4959341;28;20054;-68
2021/11/13 11:21:09;;;;;;;47.22;25.05;;;;;;;-139.48;100.00;61774.03;4973076;28;20136;-69
2021/11/13 11:24:10;;;;;;;35.40;21.92;;;;;;;-139.48;100.00;61774.03;4959262;28;20057;-69
2021/11/13 11:26:57;;;;;;;36.05;20.98;;;;;;;-139.48;100.00;61774.03;4973903;28;20066;-68
2021/11/13 11:30:00;;;;;;;30.38;17.58;;;;;;;-139.48;100.00;61774.03;4972984;28;20046;-68
2021/11/13 11:32:49;;;;;;;42.47;24.27;;;;;;;-139.48;100.00;61774.03;4972943;28;20411;-69
2021/11/13 11:35:39;;;;;;;39.85;20.50;;;;;;;-139.48;100.00;61774.03;4973058;28;20038;-69
2021/11/13 11:38:23;;;;;;;39.45;23.98;;;;;;;-139.48;100.00;61774.03;4959988;28;20057;-70
2021/11/13 11:41:07;;;;;;;33.45;20.63;;;;;;;-139.48;100.00;61774.03;4945858;28;20145;-69
2021/11/13 11:43:52;;;;;;;33.03;19.23;;;;;;;-139.48;100.00;61774.03;4959474;28;20523;-68
2021/11/13 11:46:36;;;;;;;40.10;24.63;;;;;;;-139.48;100.00;61774.03;4959218;28;20130;-69
2021/11/13 11:49:20;;;;;;;41.85;24.63;;;;;;;-139.48;100.00;61774.03;4972630;28;20109;-69
2021/11/13 11:52:04;;;;;;;36.15;19.70;;;;;;;-139.48;100.00;61774.03;4972898;28;20049;-69
2021/11/13 11:54:49;;;;;;;36.95;21.27;;;;;;;-139.48;100.00;61774.03;4972593;28;20050;-69
2021/11/13 11:57:36;;;;;;;39.75;23.83;;;;;;;-139.48;100.00;61774.03;4959552;28;20430;-69
2021/11/13 12:00:23;;;;;;;33.90;20.02;;;;;;;-139.48;100.00;61774.03;4959388;28;20117;-69
2021/11/13 12:03:26;;;;;;;36.00;21.73;;;;;;;-139.48;100.00;61774.03;4972468;28;20082;-69
2021/11/13 12:06:10;;;;;;;30.35;19.77;;;;;;;-139.48;100.00;61774.03;4958894;28;20551;-69
2021/11/13 12:09:03;;;;;;;34.80;18.40;;;;;;;-139.48;100.00;61774.03;4962409;28;20503;-68
2021/11/13 12:11:48;;;;;;;30.38;18.30;;;;;;;-139.48;100.00;61774.03;4962552;28;20078;-69
2021/11/13 12:14:32;;;;;;;24.10;12.02;;;;;;;-139.48;100.00;61774.03;4977008;28;20049;-69
2021/11/13 12:17:35;;;;;;;33.88;19.33;;;;;;;-139.48;100.00;61774.03;4962298;28;20534;-69
2021/11/13 12:20:29;;;;;;;31.73;20.17;;;;;;;-139.48;100.00;61774.03;4962164;28;20380;-69